Time,TemperatureF,DewpointF,PressureIn,WindDirection,WindDirectionDegrees,WindSpeedMPH,WindSpeedGustMPH,Humidity,HourlyPrecipIn,Conditions,Clouds,dailyrainin,SolarRadiationWatts/m^2,SoftwareType,DateUTC
2013-02-27 00:00:00,39.8,35.4,29.77,West,265,3.0,4.0,84,0.00,,,0.71,0,Wunderground v.1.15,2013-02-27 05:00:00,
2013-02-27 00:01:00,39.8,35.4,29.77,WNW,283,3.0,4.0,84,0.00,,,0.00,0,Wunderground v.1.15,2013-02-27 05:01:00,
2013-02-27 00:03:00,39.8,35.4,29.77,WNW,290,5.0,6.0,84,0.00,,,0.00,0,Wunderground v.1.15,2013-02-27 05:03:00,
2013-02-27 00:09:00,39.6,35.5,29.77,West,281,9.0,9.0,85,0.00,,,0.00,0,Wunderground v.1.15,2013-02-27 05:09:00,
2013-02-27 00:15:00,39.4,35.6,29.77,WNW,284,9.0,9.0,86,0.00,,,0.00,0,Wunderground v.1.15,2013-02-27 05:15:00,
2013-02-27 00:21:00,39.3,35.5,29.78,West,279,1.0,6.0,86,0.00,,,0.00,0,Wunderground v.1.15,2013-02-27 05:21:00,
2013-02-27 00:26:00,39.1,35.6,29.78,West,266,4.0,7.0,87,0.00,,,0.00,0,Wunderground v.1.15,2013-02-27 05:26:00,
2013-02-27 00:32:00,38.5,35.0,29.77,WSW,254,2.0,5.0,87,0.00,,,0.01,0,Wunderground v.1.15,2013-02-27 05:32:00,
2013-02-27 00:38:00,37.9,34.9,29.78,West,262,1.0,6.0,89,0.00,,,0.01,0,Wunderground v.1.15,2013-02-27 05:38:00,
2013-02-27 00:44:00,37.7,35.0,29.78,West,262,1.0,2.0,90,0.00,,,0.01,0,Wunderground v.1.15,2013-02-27 05:44:00,
2013-02-27 00:49:00,37.6,34.9,29.79,West,262,0.0,2.0,90,0.00,,,0.01,0,Wunderground v.1.15,2013-02-27 05:49:00,
2013-02-27 00:55:00,37.7,35.3,29.79,West,262,0.0,0.0,91,0.00,,,0.01,0,Wunderground v.1.15,2013-02-27 05:55:00,
2013-02-27 01:00:00,37.7,35.3,29.79,West,262,0.0,0.0,91,0.00,,,0.01,0,Wunderground v.1.15,2013-02-27 06:00:00,
2013-02-27 01:06:00,37.6,35.5,29.79,ESE,110,0.0,2.0,92,0.00,,,0.01,0,Wunderground v.1.15,2013-02-27 06:06:00,
2013-02-27 01:12:00,37.6,35.5,29.79,ESE,110,0.0,0.0,92,0.00,,,0.01,0,Wunderground v.1.15,2013-02-27 06:12:00,
2013-02-27 01:18:00,37.5,35.7,29.79,ESE,110,0.0,0.0,93,0.00,,,0.01,0,Wunderground v.1.15,2013-02-27 06:18:00,
2013-02-27 01:24:00,37.5,35.7,29.80,ESE,110,1.0,1.0,93,0.00,,,0.01,0,Wunderground v.1.15,2013-02-27 06:24:00,
2013-02-27 01:30:00,37.4,35.6,29.80,ESE,110,0.0,0.0,93,0.00,,,0.01,0,Wunderground v.1.15,2013-02-27 06:30:00,
2013-02-27 01:36:00,37.5,35.9,29.80,ESE,110,0.0,0.0,94,0.00,,,0.01,0,Wunderground v.1.15,2013-02-27 06:36:00,
2013-02-27 01:41:00,37.4,35.8,29.80,ESE,110,0.0,0.0,94,0.00,,,0.01,0,Wunderground v.1.15,2013-02-27 06:41:00,
2013-02-27 01:47:00,37.6,36.0,29.80,ESE,110,0.0,1.0,94,0.00,,,0.01,0,Wunderground v.1.15,2013-02-27 06:47:00,
2013-02-27 01:53:00,37.4,35.8,29.80,ESE,110,0.0,0.0,94,0.00,,,0.01,0,Wunderground v.1.15,2013-02-27 06:53:00,
2013-02-27 01:58:00,37.4,35.8,29.80,ESE,110,0.0,0.0,94,0.00,,,0.01,0,Wunderground v.1.15,2013-02-27 06:58:00,
2013-02-27 02:03:00,37.4,35.8,29.80,ESE,110,0.0,0.0,94,0.00,,,0.01,0,Wunderground v.1.15,2013-02-27 07:03:00,
2013-02-27 02:08:00,37.5,35.7,29.80,ESE,111,0.0,4.0,93,0.00,,,0.01,0,Wunderground v.1.15,2013-02-27 07:08:00,
2013-02-27 02:13:00,37.7,35.6,29.80,South,175,2.0,4.0,92,0.00,,,0.01,0,Wunderground v.1.15,2013-02-27 07:13:00,
2013-02-27 02:18:00,37.8,35.1,29.80,South,175,0.0,4.0,90,0.00,,,0.01,0,Wunderground v.1.15,2013-02-27 07:18:00,
2013-02-27 02:23:00,38.0,35.0,29.80,South,175,0.0,1.0,89,0.00,,,0.01,0,Wunderground v.1.15,2013-02-27 07:23:00,
2013-02-27 02:28:00,38.2,35.2,29.80,SSE,163,2.0,4.0,89,0.00,,,0.01,0,Wunderground v.1.15,2013-02-27 07:28:00,
2013-02-27 02:33:00,38.1,34.9,29.80,SSE,163,0.0,1.0,88,0.00,,,0.01,0,Wunderground v.1.15,2013-02-27 07:33:00,
2013-02-27 02:38:00,38.2,35.0,29.80,SSW,209,0.0,3.0,88,0.00,,,0.01,0,Wunderground v.1.15,2013-02-27 07:38:00,
2013-02-27 02:43:00,38.1,34.9,29.81,SSW,209,0.0,1.0,88,0.00,,,0.01,0,Wunderground v.1.15,2013-02-27 07:43:00,
2013-02-27 02:48:00,38.1,34.9,29.81,SSW,211,0.0,4.0,88,0.00,,,0.01,0,Wunderground v.1.15,2013-02-27 07:48:00,
2013-02-27 02:53:00,38.1,34.9,29.81,SSW,211,0.0,1.0,88,0.00,,,0.01,0,Wunderground v.1.15,2013-02-27 07:53:00,
2013-02-27 02:58:00,38.0,34.8,29.81,West,275,0.0,4.0,88,0.00,,,0.01,0,Wunderground v.1.15,2013-02-27 07:58:00,
2013-02-27 03:03:00,38.1,34.3,29.81,NW,306,1.0,7.0,86,0.00,,,0.01,0,Wunderground v.1.15,2013-02-27 08:03:00,
2013-02-27 03:08:00,38.2,34.4,29.81,West,265,1.0,7.0,86,0.00,,,0.01,0,Wunderground v.1.15,2013-02-27 08:08:00,
2013-02-27 03:13:00,38.3,33.6,29.81,West,274,7.0,11.0,83,0.00,,,0.01,0,Wunderground v.1.15,2013-02-27 08:13:00,
2013-02-27 03:18:00,38.4,33.4,29.81,West,273,6.0,11.0,82,0.00,,,0.01,0,Wunderground v.1.15,2013-02-27 08:18:00,
2013-02-27 03:23:00,38.4,33.1,29.81,West,271,4.0,9.0,81,0.00,,,0.01,0,Wunderground v.1.15,2013-02-27 08:23:00,
2013-02-27 03:28:00,38.4,33.1,29.81,WNW,282,4.0,9.0,81,0.00,,,0.01,0,Wunderground v.1.15,2013-02-27 08:28:00,
2013-02-27 03:33:00,38.4,32.8,29.81,WSW,245,2.0,10.0,80,0.00,,,0.01,0,Wunderground v.1.15,2013-02-27 08:33:00,
2013-02-27 03:38:00,38.4,32.8,29.81,WNW,294,6.0,10.0,80,0.00,,,0.01,0,Wunderground v.1.15,2013-02-27 08:38:00,
2013-02-27 03:43:00,38.3,32.7,29.81,WSW,251,5.0,7.0,80,0.00,,,0.01,0,Wunderground v.1.15,2013-02-27 08:43:00,
2013-02-27 03:48:00,38.3,32.4,29.81,WNW,285,6.0,12.0,79,0.00,,,0.01,0,Wunderground v.1.15,2013-02-27 08:48:00,
2013-02-27 03:53:00,38.3,32.7,29.82,West,274,7.0,8.0,80,0.00,,,0.01,0,Wunderground v.1.15,2013-02-27 08:53:00,
2013-02-27 03:58:00,38.2,32.6,29.81,NNW,327,5.0,9.0,80,0.00,,,0.01,0,Wunderground v.1.15,2013-02-27 08:58:00,
2013-02-27 04:03:00,38.2,32.6,29.82,West,279,6.0,9.0,80,0.00,,,0.01,0,Wunderground v.1.15,2013-02-27 09:03:00,
2013-02-27 04:08:00,38.2,32.9,29.82,NNW,333,5.0,9.0,81,0.00,,,0.01,0,Wunderground v.1.15,2013-02-27 09:08:00,
2013-02-27 04:13:00,38.1,32.8,29.82,WNW,286,5.0,8.0,81,0.00,,,0.01,0,Wunderground v.1.15,2013-02-27 09:13:00,
2013-02-27 04:18:00,38.1,32.8,29.82,West,281,4.0,8.0,81,0.00,,,0.01,0,Wunderground v.1.15,2013-02-27 09:18:00,
2013-02-27 04:23:00,38.0,33.0,29.82,WNW,302,2.0,4.0,82,0.00,,,0.01,0,Wunderground v.1.15,2013-02-27 09:23:00,
2013-02-27 04:28:00,37.9,32.9,29.82,West,267,3.0,6.0,82,0.00,,,0.01,0,Wunderground v.1.15,2013-02-27 09:28:00,
2013-02-27 04:33:00,37.9,32.6,29.82,WNW,290,5.0,7.0,81,0.00,,,0.01,0,Wunderground v.1.15,2013-02-27 09:33:00,
2013-02-27 04:38:00,37.9,32.3,29.82,West,259,5.0,11.0,80,0.00,,,0.01,0,Wunderground v.1.15,2013-02-27 09:38:00,
2013-02-27 04:44:00,37.9,32.3,29.82,WNW,285,2.0,10.0,80,0.00,,,0.01,0,Wunderground v.1.15,2013-02-27 09:44:00,
2013-02-27 04:49:00,37.9,32.6,29.83,WNW,286,5.0,10.0,81,0.00,,,0.01,0,Wunderground v.1.15,2013-02-27 09:49:00,
2013-02-27 04:54:00,37.9,32.6,29.83,WNW,293,8.0,10.0,81,0.00,,,0.01,0,Wunderground v.1.15,2013-02-27 09:54:00,
2013-02-27 04:59:00,37.8,32.5,29.83,WNW,296,6.0,10.0,81,0.00,,,0.01,0,Wunderground v.1.15,2013-02-27 09:59:00,
2013-02-27 05:04:00,37.8,32.5,29.83,WNW,284,7.0,10.0,81,0.00,,,0.01,0,Wunderground v.1.15,2013-02-27 10:04:00,
2013-02-27 05:09:00,37.7,32.4,29.83,WSW,257,5.0,10.0,81,0.00,,,0.01,0,Wunderground v.1.15,2013-02-27 10:09:00,
2013-02-27 05:14:00,37.7,32.4,29.83,West,259,1.0,6.0,81,0.00,,,0.01,0,Wunderground v.1.15,2013-02-27 10:14:00,
2013-02-27 05:19:00,37.7,32.1,29.84,WSW,251,5.0,9.0,80,0.00,,,0.01,0,Wunderground v.1.15,2013-02-27 10:19:00,
2013-02-27 05:24:00,37.7,32.4,29.84,WNW,290,0.0,6.0,81,0.00,,,0.01,0,Wunderground v.1.15,2013-02-27 10:24:00,
2013-02-27 05:29:00,37.7,32.1,29.84,WNW,284,3.0,6.0,80,0.00,,,0.01,0,Wunderground v.1.15,2013-02-27 10:29:00,
2013-02-27 05:34:00,37.7,32.1,29.84,WNW,282,0.0,6.0,80,0.00,,,0.01,0,Wunderground v.1.15,2013-02-27 10:34:00,
2013-02-27 05:39:00,37.7,32.1,29.85,West,281,1.0,6.0,80,0.00,,,0.01,0,Wunderground v.1.15,2013-02-27 10:39:00,
2013-02-27 05:44:00,37.7,32.1,29.85,WNW,292,0.0,6.0,80,0.00,,,0.01,0,Wunderground v.1.15,2013-02-27 10:44:00,
2013-02-27 05:49:00,37.7,32.1,29.85,WNW,301,5.0,6.0,80,0.00,,,0.01,0,Wunderground v.1.15,2013-02-27 10:49:00,
2013-02-27 05:54:00,37.7,32.1,29.85,West,279,5.0,6.0,80,0.00,,,0.01,0,Wunderground v.1.15,2013-02-27 10:54:00,
2013-02-27 05:59:00,37.7,32.1,29.85,WNW,296,4.0,8.0,80,0.00,,,0.01,0,Wunderground v.1.15,2013-02-27 10:59:00,
2013-02-27 06:04:00,37.7,32.1,29.85,WSW,247,2.0,8.0,80,0.00,,,0.01,0,Wunderground v.1.15,2013-02-27 11:04:00,
2013-02-27 06:09:00,37.7,32.1,29.85,WNW,290,5.0,10.0,80,0.00,,,0.01,0,Wunderground v.1.15,2013-02-27 11:09:00,
2013-02-27 06:14:00,37.7,32.4,29.85,SW,232,4.0,8.0,81,0.00,,,0.01,0,Wunderground v.1.15,2013-02-27 11:14:00,
2013-02-27 06:19:00,37.6,32.3,29.86,WNW,302,3.0,8.0,81,0.00,,,0.01,0,Wunderground v.1.15,2013-02-27 11:19:00,
2013-02-27 06:24:00,37.6,32.3,29.85,WNW,286,2.0,5.0,81,0.00,,,0.01,0,Wunderground v.1.15,2013-02-27 11:24:00,
2013-02-27 06:29:00,37.5,32.2,29.85,WSW,258,2.0,5.0,81,0.00,,,0.01,0,Wunderground v.1.15,2013-02-27 11:29:00,
2013-02-27 06:34:00,37.5,32.2,29.85,WNW,286,7.0,8.0,81,0.00,,,0.01,0,Wunderground v.1.15,2013-02-27 11:34:00,
2013-02-27 06:39:00,37.5,32.2,29.86,West,271,1.0,9.0,81,0.00,,,0.01,0,Wunderground v.1.15,2013-02-27 11:39:00,
2013-02-27 06:44:00,37.5,32.2,29.86,WNW,289,5.0,7.0,81,0.00,,,0.01,0,Wunderground v.1.15,2013-02-27 11:44:00,
2013-02-27 06:50:00,37.5,32.2,29.86,WNW,296,2.0,3.0,81,0.00,,,0.01,0,Wunderground v.1.15,2013-02-27 11:50:00,
2013-02-27 06:55:00,37.4,32.1,29.86,West,264,2.0,6.0,81,0.00,,,0.01,0,Wunderground v.1.15,2013-02-27 11:55:00,
2013-02-27 07:00:00,37.4,32.4,29.86,WNW,298,0.0,3.0,82,0.00,,,0.01,0,Wunderground v.1.15,2013-02-27 12:00:00,
2013-02-27 07:05:00,37.4,32.4,29.86,WNW,298,2.0,4.0,82,0.00,,,0.01,0,Wunderground v.1.15,2013-02-27 12:05:00,
2013-02-27 07:10:00,37.3,32.3,29.86,West,261,0.0,1.0,82,0.00,,,0.01,0,Wunderground v.1.15,2013-02-27 12:10:00,
2013-02-27 07:15:00,37.3,32.3,29.86,WNW,289,3.0,3.0,82,0.00,,,0.01,5,Wunderground v.1.15,2013-02-27 12:15:00,
2013-02-27 07:20:00,37.3,32.3,29.86,NW,306,0.0,2.0,82,0.00,,,0.01,7,Wunderground v.1.15,2013-02-27 12:20:00,
2013-02-27 07:25:00,37.3,32.0,29.86,WNW,290,2.0,5.0,81,0.00,,,0.01,7,Wunderground v.1.15,2013-02-27 12:25:00,
2013-02-27 07:30:00,37.3,32.0,29.86,WNW,290,1.0,2.0,81,0.00,,,0.01,9,Wunderground v.1.15,2013-02-27 12:30:00,
2013-02-27 07:35:00,37.3,32.0,29.86,WNW,298,2.0,4.0,81,0.00,,,0.01,11,Wunderground v.1.15,2013-02-27 12:35:00,
2013-02-27 07:40:00,37.3,32.0,29.85,WNW,298,0.0,1.0,81,0.00,,,0.01,14,Wunderground v.1.15,2013-02-27 12:40:00,
2013-02-27 07:45:00,37.3,32.3,29.85,WNW,298,1.0,1.0,82,0.00,,,0.01,16,Wunderground v.1.15,2013-02-27 12:45:00,
2013-02-27 07:50:00,37.3,32.0,29.86,WNW,298,0.0,0.0,81,0.00,,,0.01,21,Wunderground v.1.15,2013-02-27 12:50:00,
2013-02-27 07:55:00,37.3,32.3,29.87,WNW,298,0.0,0.0,82,0.00,,,0.01,25,Wunderground v.1.15,2013-02-27 12:55:00,
2013-02-27 08:00:00,37.3,32.3,29.87,WNW,298,1.0,2.0,82,0.00,,,0.01,33,Wunderground v.1.15,2013-02-27 13:00:00,
2013-02-27 08:05:00,37.4,32.4,29.88,WNW,283,2.0,4.0,82,0.00,,,0.01,40,Wunderground v.1.15,2013-02-27 13:05:00,
2013-02-27 08:10:00,37.4,32.7,29.88,SW,215,0.0,4.0,83,0.00,,,0.01,44,Wunderground v.1.15,2013-02-27 13:10:00,
2013-02-27 08:15:00,37.5,32.8,29.89,WNW,296,2.0,5.0,83,0.00,,,0.01,47,Wunderground v.1.15,2013-02-27 13:15:00,
2013-02-27 08:20:00,37.5,32.5,29.89,WNW,291,0.0,2.0,82,0.00,,,0.01,54,Wunderground v.1.15,2013-02-27 13:20:00,
2013-02-27 08:25:00,37.6,32.6,29.89,West,279,2.0,5.0,82,0.00,,,0.01,60,Wunderground v.1.15,2013-02-27 13:25:00,
2013-02-27 08:30:00,37.6,32.3,29.89,WNW,290,1.0,7.0,81,0.00,,,0.01,49,Wunderground v.1.15,2013-02-27 13:30:00,
2013-02-27 08:35:00,37.6,32.6,29.90,WNW,285,0.0,7.0,82,0.00,,,0.01,42,Wunderground v.1.15,2013-02-27 13:35:00,
2013-02-27 08:40:00,37.6,32.3,29.90,West,276,2.0,5.0,81,0.00,,,0.01,40,Wunderground v.1.15,2013-02-27 13:40:00,
2013-02-27 08:45:00,37.6,32.3,29.90,West,273,2.0,5.0,81,0.00,,,0.01,47,Wunderground v.1.15,2013-02-27 13:45:00,
2013-02-27 08:50:00,37.6,32.3,29.90,NW,308,3.0,4.0,81,0.00,,,0.01,51,Wunderground v.1.15,2013-02-27 13:50:00,
2013-02-27 08:55:00,37.7,32.4,29.90,NW,307,0.0,4.0,81,0.00,,,0.01,58,Wunderground v.1.15,2013-02-27 13:55:00,
2013-02-27 09:01:00,37.7,32.4,29.91,NW,307,0.0,1.0,81,0.00,,,0.01,58,Wunderground v.1.15,2013-02-27 14:01:00,
2013-02-27 09:06:00,37.7,32.1,29.91,WNW,292,3.0,5.0,80,0.00,,,0.01,60,Wunderground v.1.15,2013-02-27 14:06:00,
2013-02-27 09:11:00,37.8,32.5,29.90,WNW,289,0.0,2.0,81,0.00,,,0.01,67,Wunderground v.1.15,2013-02-27 14:11:00,
2013-02-27 09:16:00,37.9,32.6,29.91,WNW,289,2.0,3.0,81,0.00,,,0.01,72,Wunderground v.1.15,2013-02-27 14:16:00,
2013-02-27 09:21:00,37.9,32.3,29.91,WNW,289,3.0,3.0,80,0.00,,,0.01,83,Wunderground v.1.15,2013-02-27 14:21:00,
2013-02-27 09:26:00,38.0,32.4,29.91,WNW,289,1.0,3.0,80,0.00,,,0.01,91,Wunderground v.1.15,2013-02-27 14:26:00,
2013-02-27 09:31:00,38.0,32.4,29.91,WNW,302,1.0,3.0,80,0.00,,,0.01,97,Wunderground v.1.15,2013-02-27 14:31:00,
2013-02-27 09:36:00,38.2,32.9,29.92,WNW,290,1.0,4.0,81,0.00,,,0.01,102,Wunderground v.1.15,2013-02-27 14:36:00,
2013-02-27 09:41:00,38.3,32.7,29.91,WNW,288,1.0,3.0,80,0.00,,,0.01,123,Wunderground v.1.15,2013-02-27 14:41:00,
2013-02-27 09:46:00,38.4,32.5,29.91,WNW,294,1.0,4.0,79,0.00,,,0.01,134,Wunderground v.1.15,2013-02-27 14:46:00,
2013-02-27 09:51:00,38.6,33.3,29.91,NW,312,2.0,3.0,81,0.00,,,0.01,135,Wunderground v.1.15,2013-02-27 14:51:00,
2013-02-27 09:57:00,38.9,33.6,29.91,WNW,297,5.0,7.0,81,0.00,,,0.01,137,Wunderground v.1.15,2013-02-27 14:57:00,
2013-02-27 10:02:00,38.8,33.2,29.91,WNW,300,4.0,8.0,80,0.00,,,0.01,181,Wunderground v.1.15,2013-02-27 15:02:00,
2013-02-27 10:07:00,38.9,33.3,29.91,WNW,295,3.0,8.0,80,0.00,,,0.01,183,Wunderground v.1.15,2013-02-27 15:07:00,
2013-02-27 10:12:00,39.2,33.9,29.91,WNW,298,5.0,8.0,81,0.00,,,0.01,186,Wunderground v.1.15,2013-02-27 15:12:00,
2013-02-27 10:17:00,39.3,33.6,29.91,WNW,282,9.0,9.0,80,0.00,,,0.01,193,Wunderground v.1.15,2013-02-27 15:17:00,
2013-02-27 10:22:00,39.3,33.6,29.92,West,281,8.0,11.0,80,0.00,,,0.01,188,Wunderground v.1.15,2013-02-27 15:22:00,
2013-02-27 10:27:00,39.3,33.3,29.92,WNW,284,8.0,11.0,79,0.00,,,0.01,183,Wunderground v.1.15,2013-02-27 15:27:00,
2013-02-27 10:32:00,39.5,34.2,29.92,WNW,301,4.0,7.0,81,0.00,,,0.01,178,Wunderground v.1.15,2013-02-27 15:32:00,
2013-02-27 10:37:00,39.6,33.6,29.92,West,281,3.0,8.0,79,0.00,,,0.01,185,Wunderground v.1.15,2013-02-27 15:37:00,
2013-02-27 10:42:00,39.7,33.7,29.92,WNW,290,7.0,9.0,79,0.00,,,0.01,227,Wunderground v.1.15,2013-02-27 15:42:00,
2013-02-27 10:47:00,39.8,33.8,29.92,WNW,298,2.0,9.0,79,0.00,,,0.01,214,Wunderground v.1.15,2013-02-27 15:47:00,
2013-02-27 10:53:00,40.1,34.1,29.92,West,281,0.0,6.0,79,0.00,,,0.01,329,Wunderground v.1.15,2013-02-27 15:53:00,
2013-02-27 10:58:00,40.4,34.1,29.91,NW,326,5.0,9.0,78,0.00,,,0.01,378,Wunderground v.1.15,2013-02-27 15:58:00,
2013-02-27 11:03:00,40.7,34.0,29.91,West,275,5.0,12.0,77,0.00,,,0.01,367,Wunderground v.1.15,2013-02-27 16:03:00,
2013-02-27 11:08:00,40.7,33.7,29.91,North,349,4.0,12.0,76,0.00,,,0.01,330,Wunderground v.1.15,2013-02-27 16:08:00,
2013-02-27 11:13:00,41.3,35.0,29.91,NW,317,6.0,12.0,78,0.00,,,0.01,302,Wunderground v.1.15,2013-02-27 16:13:00,
2013-02-27 11:18:00,40.9,33.9,29.91,NW,315,8.0,12.0,76,0.00,,,0.01,260,Wunderground v.1.15,2013-02-27 16:18:00,
2013-02-27 11:23:00,40.7,34.0,29.91,WNW,303,7.0,9.0,77,0.00,,,0.01,211,Wunderground v.1.15,2013-02-27 16:23:00,
2013-02-27 11:28:00,40.5,33.9,29.91,NW,311,2.0,10.0,77,0.00,,,0.01,206,Wunderground v.1.15,2013-02-27 16:28:00,
2013-02-27 11:33:00,40.8,34.1,29.91,North,350,5.0,8.0,77,0.00,,,0.01,218,Wunderground v.1.15,2013-02-27 16:33:00,
2013-02-27 11:38:00,40.6,34.0,29.91,NW,321,1.0,8.0,77,0.00,,,0.01,211,Wunderground v.1.15,2013-02-27 16:38:00,
2013-02-27 11:43:00,40.7,34.0,29.91,NNE,30,2.0,3.0,77,0.00,,,0.01,207,Wunderground v.1.15,2013-02-27 16:43:00,
2013-02-27 11:48:00,41.2,34.5,29.91,WSW,238,3.0,4.0,77,0.00,,,0.01,251,Wunderground v.1.15,2013-02-27 16:48:00,
2013-02-27 11:53:00,41.2,34.2,29.91,NW,307,0.0,4.0,76,0.00,,,0.01,281,Wunderground v.1.15,2013-02-27 16:53:00,
2013-02-27 11:58:00,42.0,35.3,29.91,WNW,298,3.0,7.0,77,0.00,,,0.01,334,Wunderground v.1.15,2013-02-27 16:58:00,
2013-02-27 12:03:00,42.3,34.9,29.90,NNW,343,0.0,3.0,75,0.00,,,0.01,1020,Wunderground v.1.15,2013-02-27 17:03:00,
2013-02-27 12:09:00,43.5,36.4,29.90,WNW,297,3.0,6.0,76,0.00,,,0.01,225,Wunderground v.1.15,2013-02-27 17:09:00,
2013-02-27 12:13:00,42.9,34.8,29.90,WNW,298,3.0,6.0,73,0.00,,,0.01,255,Wunderground v.1.15,2013-02-27 17:13:00,
2013-02-27 12:19:00,43.2,35.5,29.90,WNW,300,2.0,6.0,74,0.00,,,0.01,285,Wunderground v.1.15,2013-02-27 17:19:00,
2013-02-27 12:24:00,43.4,35.3,29.89,WSW,258,4.0,5.0,73,0.00,,,0.01,816,Wunderground v.1.15,2013-02-27 17:24:00,
2013-02-27 12:29:00,44.8,36.0,29.89,West,277,1.0,8.0,71,0.00,,,0.01,819,Wunderground v.1.15,2013-02-27 17:29:00,
2013-02-27 12:34:00,44.4,34.9,29.89,West,270,0.0,3.0,69,0.00,,,0.01,856,Wunderground v.1.15,2013-02-27 17:34:00,
2013-02-27 12:39:00,45.0,35.8,29.89,WNW,286,6.0,8.0,70,0.00,,,0.01,786,Wunderground v.1.15,2013-02-27 17:39:00,
2013-02-27 12:44:00,45.5,37.0,29.89,NW,317,5.0,5.0,72,0.00,,,0.01,809,Wunderground v.1.15,2013-02-27 17:44:00,
2013-02-27 12:49:00,45.5,35.9,29.89,WNW,288,0.0,6.0,69,0.00,,,0.01,812,Wunderground v.1.15,2013-02-27 17:49:00,
2013-02-27 12:54:00,46.2,36.6,29.89,West,280,5.0,7.0,69,0.00,,,0.01,777,Wunderground v.1.15,2013-02-27 17:54:00,
2013-02-27 12:59:00,45.8,35.5,29.88,North,5,2.0,7.0,67,0.00,,,0.01,775,Wunderground v.1.15,2013-02-27 17:59:00,
2013-02-27 13:04:00,46.4,36.0,29.88,WNW,288,0.0,5.0,67,0.00,,,0.01,789,Wunderground v.1.15,2013-02-27 18:04:00,
2013-02-27 13:09:00,46.7,36.3,29.88,West,271,0.0,8.0,67,0.00,,,0.01,779,Wunderground v.1.15,2013-02-27 18:09:00,
2013-02-27 13:14:00,47.4,36.2,29.88,WNW,290,0.0,6.0,65,0.00,,,0.01,770,Wunderground v.1.15,2013-02-27 18:14:00,
2013-02-27 13:19:00,47.8,36.2,29.87,West,263,2.0,8.0,64,0.00,,,0.01,765,Wunderground v.1.15,2013-02-27 18:19:00,
2013-02-27 13:24:00,47.7,36.1,29.87,SSW,205,6.0,9.0,64,0.00,,,0.01,779,Wunderground v.1.15,2013-02-27 18:24:00,
2013-02-27 13:29:00,47.6,36.0,29.87,SSE,154,4.0,9.0,64,0.00,,,0.01,745,Wunderground v.1.15,2013-02-27 18:29:00,
2013-02-27 13:34:00,47.5,35.9,29.87,South,182,3.0,7.0,64,0.00,,,0.01,752,Wunderground v.1.15,2013-02-27 18:34:00,
2013-02-27 13:39:00,47.7,36.1,29.87,SSW,200,0.0,7.0,64,0.00,,,0.01,770,Wunderground v.1.15,2013-02-27 18:39:00,
2013-02-27 13:44:00,49.0,36.5,29.86,SSW,203,0.0,5.0,62,0.00,,,0.01,738,Wunderground v.1.15,2013-02-27 18:44:00,
2013-02-27 13:49:00,49.8,36.9,29.86,NNW,333,2.0,8.0,61,0.00,,,0.01,738,Wunderground v.1.15,2013-02-27 18:49:00,
2013-02-27 13:54:00,50.3,36.9,29.86,NW,313,2.0,5.0,60,0.00,,,0.01,749,Wunderground v.1.15,2013-02-27 18:54:00,
2013-02-27 13:59:00,50.4,36.6,29.86,SSW,211,2.0,5.0,59,0.00,,,0.01,729,Wunderground v.1.15,2013-02-27 18:59:00,
2013-02-27 14:04:00,49.7,37.2,29.86,South,190,4.0,10.0,62,0.00,,,0.01,733,Wunderground v.1.15,2013-02-27 19:04:00,
2013-02-27 14:09:00,48.7,35.8,29.86,ESE,119,0.0,10.0,61,0.00,,,0.01,802,Wunderground v.1.15,2013-02-27 19:09:00,
2013-02-27 14:14:00,49.7,36.4,29.85,SE,128,0.0,4.0,60,0.00,,,0.01,733,Wunderground v.1.15,2013-02-27 19:14:00,
2013-02-27 14:20:00,50.4,36.6,29.85,East,80,0.0,8.0,59,0.00,,,0.01,668,Wunderground v.1.15,2013-02-27 19:20:00,
2013-02-27 14:25:00,50.1,35.9,29.84,ESE,117,0.0,4.0,58,0.00,,,0.01,673,Wunderground v.1.15,2013-02-27 19:25:00,
2013-02-27 14:30:00,50.8,37.4,29.84,SW,216,5.0,5.0,60,0.00,,,0.01,684,Wunderground v.1.15,2013-02-27 19:30:00,
2013-02-27 14:35:00,51.7,38.3,29.84,West,269,3.0,11.0,60,0.00,,,0.01,666,Wunderground v.1.15,2013-02-27 19:35:00,
2013-02-27 14:40:00,52.2,37.0,29.84,SSW,197,6.0,6.0,56,0.00,,,0.01,656,Wunderground v.1.15,2013-02-27 19:40:00,
2013-02-27 14:45:00,52.3,37.1,29.84,WSW,258,3.0,8.0,56,0.00,,,0.01,649,Wunderground v.1.15,2013-02-27 19:45:00,
2013-02-27 14:50:00,52.3,36.6,29.84,SSW,209,8.0,9.0,55,0.00,,,0.01,636,Wunderground v.1.15,2013-02-27 19:50:00,
2013-02-27 14:55:00,52.2,36.0,29.84,WSW,241,3.0,11.0,54,0.00,,,0.01,631,Wunderground v.1.15,2013-02-27 19:55:00,
2013-02-27 15:00:00,51.9,35.8,29.83,WNW,296,5.0,5.0,54,0.00,,,0.01,613,Wunderground v.1.15,2013-02-27 20:00:00,
2013-02-27 15:05:00,52.4,35.8,29.83,SSW,213,4.0,10.0,53,0.00,,,0.01,610,Wunderground v.1.15,2013-02-27 20:05:00,
2013-02-27 15:10:00,53.2,36.5,29.83,West,275,5.0,5.0,53,0.00,,,0.01,587,Wunderground v.1.15,2013-02-27 20:10:00,
2013-02-27 15:15:00,53.3,35.6,29.83,WNW,284,5.0,7.0,51,0.00,,,0.01,580,Wunderground v.1.15,2013-02-27 20:15:00,
2013-02-27 15:20:00,53.2,34.0,29.83,WSW,257,6.0,7.0,48,0.00,,,0.01,568,Wunderground v.1.15,2013-02-27 20:20:00,
2013-02-27 15:25:00,53.8,35.6,29.83,SW,236,17.0,17.0,50,0.00,,,0.01,548,Wunderground v.1.15,2013-02-27 20:25:00,
2013-02-27 15:30:00,53.5,34.8,29.84,SW,234,8.0,8.0,49,0.00,,,0.01,541,Wunderground v.1.15,2013-02-27 20:30:00,
2013-02-27 15:35:00,53.5,34.8,29.84,SSW,208,6.0,14.0,49,0.00,,,0.01,524,Wunderground v.1.15,2013-02-27 20:35:00,
2013-02-27 15:40:00,53.4,33.7,29.84,SSW,209,6.0,9.0,47,0.00,,,0.01,513,Wunderground v.1.15,2013-02-27 20:40:00,
2013-02-27 15:45:00,53.2,34.0,29.83,West,275,2.0,16.0,48,0.00,,,0.01,499,Wunderground v.1.15,2013-02-27 20:45:00,
2013-02-27 15:51:00,53.2,34.0,29.83,WNW,294,11.0,14.0,48,0.00,,,0.01,480,Wunderground v.1.15,2013-02-27 20:51:00,
2013-02-27 15:56:00,53.1,35.4,29.84,WSW,255,5.0,14.0,51,0.00,,,0.01,464,Wunderground v.1.15,2013-02-27 20:56:00,
2013-02-27 16:01:00,53.0,35.3,29.84,WSW,248,8.0,9.0,51,0.00,,,0.01,448,Wunderground v.1.15,2013-02-27 21:01:00,
2013-02-27 16:06:00,52.3,35.2,29.83,West,271,4.0,9.0,52,0.00,,,0.01,441,Wunderground v.1.15,2013-02-27 21:06:00,
2013-02-27 16:11:00,52.0,34.9,29.84,SSE,161,7.0,9.0,52,0.00,,,0.01,473,Wunderground v.1.15,2013-02-27 21:11:00,
2013-02-27 16:16:00,52.7,36.5,29.83,SSW,196,7.0,9.0,54,0.00,,,0.01,415,Wunderground v.1.15,2013-02-27 21:16:00,
2013-02-27 16:21:00,52.6,35.9,29.84,West,273,8.0,10.0,53,0.00,,,0.01,388,Wunderground v.1.15,2013-02-27 21:21:00,
2013-02-27 16:26:00,52.1,35.9,29.84,SSW,197,4.0,14.0,54,0.00,,,0.01,380,Wunderground v.1.15,2013-02-27 21:26:00,
2013-02-27 16:31:00,51.4,34.8,29.84,SW,232,0.0,10.0,53,0.00,,,0.01,76,Wunderground v.1.15,2013-02-27 21:31:00,
2013-02-27 16:36:00,50.8,35.2,29.84,West,276,3.0,10.0,55,0.00,,,0.01,77,Wunderground v.1.15,2013-02-27 21:36:00,
2013-02-27 16:41:00,50.6,34.6,29.84,WSW,239,6.0,10.0,54,0.00,,,0.01,123,Wunderground v.1.15,2013-02-27 21:41:00,
2013-02-27 16:46:00,51.1,35.5,29.84,SW,221,8.0,12.0,55,0.00,,,0.01,155,Wunderground v.1.15,2013-02-27 21:46:00,
2013-02-27 16:51:00,51.5,35.4,29.84,SSW,213,1.0,7.0,54,0.00,,,0.01,329,Wunderground v.1.15,2013-02-27 21:51:00,
2013-02-27 16:56:00,51.4,34.8,29.84,West,270,4.0,11.0,53,0.00,,,0.01,62,Wunderground v.1.15,2013-02-27 21:56:00,
2013-02-27 17:01:00,50.8,34.7,29.85,West,273,4.0,5.0,54,0.00,,,0.01,65,Wunderground v.1.15,2013-02-27 22:01:00,
2013-02-27 17:06:00,50.4,35.3,29.85,NE,49,2.0,7.0,56,0.00,,,0.01,257,Wunderground v.1.15,2013-02-27 22:06:00,
2013-02-27 17:11:00,50.5,34.9,29.84,South,172,8.0,8.0,55,0.00,,,0.01,113,Wunderground v.1.15,2013-02-27 22:11:00,
2013-02-27 17:16:00,50.3,34.7,29.84,WSW,243,8.0,9.0,55,0.00,,,0.01,62,Wunderground v.1.15,2013-02-27 22:16:00,
2013-02-27 17:21:00,50.5,35.4,29.84,SSW,208,8.0,9.0,56,0.00,,,0.01,127,Wunderground v.1.15,2013-02-27 22:21:00,
2013-02-27 17:26:00,50.5,35.4,29.85,SSW,204,6.0,11.0,56,0.00,,,0.01,76,Wunderground v.1.15,2013-02-27 22:26:00,
2013-02-27 17:31:00,50.2,36.0,29.84,SSW,193,0.0,5.0,58,0.00,,,0.01,84,Wunderground v.1.15,2013-02-27 22:31:00,
2013-02-27 17:36:00,50.1,35.0,29.84,NW,311,5.0,8.0,56,0.00,,,0.01,69,Wunderground v.1.15,2013-02-27 22:36:00,
2013-02-27 17:41:00,49.9,35.3,29.85,SW,220,4.0,7.0,57,0.00,,,0.01,35,Wunderground v.1.15,2013-02-27 22:41:00,
2013-02-27 17:47:00,49.6,35.8,29.85,West,268,5.0,7.0,59,0.00,,,0.01,35,Wunderground v.1.15,2013-02-27 22:47:00,
2013-02-27 17:52:00,49.5,35.3,29.85,WSW,250,2.0,3.0,58,0.00,,,0.01,28,Wunderground v.1.15,2013-02-27 22:52:00,
2013-02-27 17:57:00,49.3,35.1,29.85,SW,219,0.0,8.0,58,0.00,,,0.01,16,Wunderground v.1.15,2013-02-27 22:57:00,
2013-02-27 18:02:00,49.2,35.0,29.86,WSW,241,5.0,5.0,58,0.00,,,0.01,11,Wunderground v.1.15,2013-02-27 23:02:00,
2013-02-27 18:07:00,49.1,35.4,29.86,West,273,5.0,6.0,59,0.00,,,0.01,12,Wunderground v.1.15,2013-02-27 23:07:00,
2013-02-27 18:12:00,49.0,35.7,29.85,WNW,284,2.0,5.0,60,0.00,,,0.01,9,Wunderground v.1.15,2013-02-27 23:12:00,
2013-02-27 18:17:00,48.9,36.0,29.85,WSW,254,0.0,5.0,61,0.00,,,0.01,5,Wunderground v.1.15,2013-02-27 23:17:00,
2013-02-27 18:22:00,48.7,35.8,29.85,WSW,255,2.0,4.0,61,0.00,,,0.01,5,Wunderground v.1.15,2013-02-27 23:22:00,
2013-02-27 18:27:00,48.6,35.7,29.85,WNW,289,1.0,4.0,61,0.00,,,0.01,0,Wunderground v.1.15,2013-02-27 23:27:00,
2013-02-27 18:32:00,48.6,35.7,29.86,WNW,284,2.0,8.0,61,0.00,,,0.01,0,Wunderground v.1.15,2013-02-27 23:32:00,
2013-02-27 18:37:00,48.5,35.7,29.85,West,267,0.0,8.0,61,0.00,,,0.01,0,Wunderground v.1.15,2013-02-27 23:37:00,
2013-02-27 18:42:00,48.4,35.6,29.86,West,280,0.0,4.0,61,0.00,,,0.01,0,Wunderground v.1.15,2013-02-27 23:42:00,
2013-02-27 18:47:00,48.2,35.8,29.86,SW,227,3.0,4.0,62,0.00,,,0.01,0,Wunderground v.1.15,2013-02-27 23:47:00,
2013-02-27 18:52:00,48.1,35.7,29.86,West,273,0.0,1.0,62,0.00,,,0.01,0,Wunderground v.1.15,2013-02-27 23:52:00,
2013-02-27 18:57:00,47.9,36.3,29.85,West,273,0.0,2.0,64,0.00,,,0.01,0,Wunderground v.1.15,2013-02-27 23:57:00,
2013-02-27 19:02:00,47.9,35.9,29.85,West,273,0.0,1.0,63,0.00,,,0.01,0,Wunderground v.1.15,2013-02-28 00:02:00,
2013-02-27 19:07:00,47.8,35.8,29.86,WNW,284,1.0,4.0,63,0.00,,,0.01,0,Wunderground v.1.15,2013-02-28 00:07:00,
2013-02-27 19:12:00,47.8,36.2,29.86,WNW,284,0.0,1.0,64,0.00,,,0.01,0,Wunderground v.1.15,2013-02-28 00:12:00,
2013-02-27 19:17:00,47.4,37.0,29.86,WNW,284,0.0,1.0,67,0.00,,,0.01,0,Wunderground v.1.15,2013-02-28 00:17:00,
2013-02-27 19:23:00,47.2,36.8,29.86,WNW,284,0.0,0.0,67,0.00,,,0.01,0,Wunderground v.1.15,2013-02-28 00:23:00,
2013-02-27 19:28:00,47.2,36.0,29.86,SW,234,5.0,8.0,65,0.00,,,0.01,0,Wunderground v.1.15,2013-02-28 00:28:00,
2013-02-27 19:33:00,47.3,35.7,29.87,West,274,8.0,9.0,64,0.00,,,0.01,0,Wunderground v.1.15,2013-02-28 00:33:00,
2013-02-27 19:38:00,47.2,36.8,29.88,WNW,282,10.0,20.0,67,0.00,,,0.01,0,Wunderground v.1.15,2013-02-28 00:38:00,
2013-02-27 19:43:00,46.3,37.8,29.89,WNW,293,13.0,14.0,72,0.00,,,0.01,0,Wunderground v.1.15,2013-02-28 00:43:00,
2013-02-27 19:48:00,44.8,37.7,29.87,NW,309,0.0,14.0,76,0.00,,,0.02,0,Wunderground v.1.15,2013-02-28 00:48:00,
2013-02-27 19:53:00,43.5,37.7,29.86,West,261,0.0,4.0,80,0.00,,,0.02,0,Wunderground v.1.15,2013-02-28 00:53:00,
2013-02-27 19:58:00,42.8,38.0,29.86,West,262,0.0,4.0,83,0.00,,,0.02,0,Wunderground v.1.15,2013-02-28 00:58:00,
2013-02-27 20:03:00,42.4,38.2,29.87,WNW,301,0.0,3.0,85,0.00,,,0.02,0,Wunderground v.1.15,2013-02-28 01:03:00,
2013-02-27 20:08:00,42.2,38.6,29.87,WNW,301,0.0,3.0,87,0.00,,,0.02,0,Wunderground v.1.15,2013-02-28 01:08:00,
2013-02-27 20:13:00,41.8,39.1,29.88,WNW,301,1.0,3.0,90,0.00,,,0.02,0,Wunderground v.1.15,2013-02-28 01:13:00,
2013-02-27 20:18:00,41.8,39.1,29.89,WNW,290,4.0,8.0,90,0.00,,,0.02,0,Wunderground v.1.15,2013-02-28 01:18:00,
2013-02-27 20:23:00,41.7,38.7,29.89,West,281,5.0,13.0,89,0.18,,,0.04,0,Wunderground v.1.15,2013-02-28 01:23:00,
2013-02-27 20:28:00,41.5,38.2,29.89,NW,325,2.0,13.0,88,0.09,,,0.05,0,Wunderground v.1.15,2013-02-28 01:28:00,
2013-02-27 20:33:00,41.3,38.3,29.88,NW,306,2.0,4.0,89,0.09,,,0.05,0,Wunderground v.1.15,2013-02-28 01:33:00,
2013-02-27 20:38:00,41.1,38.4,29.89,NW,306,0.0,4.0,90,0.05,,,0.05,0,Wunderground v.1.15,2013-02-28 01:38:00,
2013-02-27 20:43:00,40.9,38.5,29.89,NW,306,0.0,1.0,91,0.04,,,0.05,0,Wunderground v.1.15,2013-02-28 01:43:00,
2013-02-27 20:49:00,40.7,38.3,29.88,NW,306,0.0,1.0,91,0.00,,,0.05,0,Wunderground v.1.15,2013-02-28 01:49:00,
2013-02-27 20:54:00,40.7,38.6,29.88,NW,306,0.0,0.0,92,0.00,,,0.05,0,Wunderground v.1.15,2013-02-28 01:54:00,
2013-02-27 20:59:00,40.7,38.6,29.88,NW,306,0.0,0.0,92,0.00,,,0.05,0,Wunderground v.1.15,2013-02-28 01:59:00,
2013-02-27 21:04:00,40.5,38.6,29.89,NW,306,0.0,0.0,93,0.00,,,0.05,0,Wunderground v.1.15,2013-02-28 02:04:00,
2013-02-27 21:09:00,40.3,38.7,29.89,NW,306,0.0,1.0,94,0.00,,,0.05,0,Wunderground v.1.15,2013-02-28 02:09:00,
2013-02-27 21:14:00,40.2,38.6,29.89,NW,306,0.0,0.0,94,0.00,,,0.05,0,Wunderground v.1.15,2013-02-28 02:14:00,
2013-02-27 21:19:00,40.2,38.6,29.89,NW,306,0.0,0.0,94,0.00,,,0.05,0,Wunderground v.1.15,2013-02-28 02:19:00,
2013-02-27 21:24:00,40.4,38.8,29.88,NW,306,0.0,1.0,94,0.00,,,0.05,0,Wunderground v.1.15,2013-02-28 02:24:00,
2013-02-27 21:29:00,40.5,38.9,29.88,NW,306,0.0,1.0,94,0.00,,,0.05,0,Wunderground v.1.15,2013-02-28 02:29:00,
2013-02-27 21:34:00,40.3,38.7,29.89,NW,306,0.0,0.0,94,0.00,,,0.05,0,Wunderground v.1.15,2013-02-28 02:34:00,
2013-02-27 21:39:00,40.1,38.8,29.89,NW,306,0.0,0.0,95,0.00,,,0.05,0,Wunderground v.1.15,2013-02-28 02:39:00,
2013-02-27 21:44:00,40.1,38.8,29.89,NW,306,0.0,0.0,95,0.00,,,0.05,0,Wunderground v.1.15,2013-02-28 02:44:00,
2013-02-27 21:49:00,40.0,38.7,29.89,NW,306,0.0,0.0,95,0.00,,,0.05,0,Wunderground v.1.15,2013-02-28 02:49:00,
2013-02-27 21:54:00,40.1,38.8,29.89,NW,306,0.0,0.0,95,0.00,,,0.05,0,Wunderground v.1.15,2013-02-28 02:54:00,
2013-02-27 21:59:00,40.0,38.7,29.89,NW,306,0.0,0.0,95,0.00,,,0.05,0,Wunderground v.1.15,2013-02-28 02:59:00,
2013-02-27 22:04:00,40.0,39.0,29.89,WNW,295,2.0,4.0,96,0.00,,,0.05,0,Wunderground v.1.15,2013-02-28 03:04:00,
2013-02-27 22:09:00,40.1,38.8,29.89,West,273,0.0,8.0,95,0.00,,,0.05,0,Wunderground v.1.15,2013-02-28 03:09:00,
2013-02-27 22:14:00,40.3,39.0,29.89,WNW,286,4.0,7.0,95,0.00,,,0.05,0,Wunderground v.1.15,2013-02-28 03:14:00,
2013-02-27 22:19:00,40.6,38.5,29.89,West,271,3.0,7.0,92,0.00,,,0.05,0,Wunderground v.1.15,2013-02-28 03:19:00,
2013-02-27 22:24:00,40.6,38.2,29.89,WNW,289,2.0,4.0,91,0.00,,,0.05,0,Wunderground v.1.15,2013-02-28 03:24:00,
2013-02-27 22:29:00,40.6,37.6,29.89,WNW,295,3.0,10.0,89,0.00,,,0.05,0,Wunderground v.1.15,2013-02-28 03:29:00,
2013-02-27 22:34:00,40.7,37.4,29.89,WNW,290,2.0,7.0,88,0.00,,,0.05,0,Wunderground v.1.15,2013-02-28 03:34:00,
2013-02-27 22:39:00,40.7,37.4,29.89,West,267,2.0,7.0,88,0.00,,,0.05,0,Wunderground v.1.15,2013-02-28 03:39:00,
2013-02-27 22:44:00,40.7,36.5,29.90,WNW,289,2.0,14.0,85,0.00,,,0.05,0,Wunderground v.1.15,2013-02-28 03:44:00,
2013-02-27 22:49:00,40.7,36.5,29.90,West,269,3.0,14.0,85,0.00,,,0.05,0,Wunderground v.1.15,2013-02-28 03:49:00,
2013-02-27 22:54:00,40.8,35.7,29.90,WNW,290,6.0,15.0,82,0.00,,,0.05,0,Wunderground v.1.15,2013-02-28 03:54:00,
2013-02-27 22:59:00,40.8,35.4,29.90,NNW,333,8.0,15.0,81,0.00,,,0.05,0,Wunderground v.1.15,2013-02-28 03:59:00,
2013-02-27 23:04:00,41.0,35.0,29.90,WNW,299,6.0,13.0,79,0.00,,,0.05,0,Wunderground v.1.15,2013-02-28 04:04:00,
2013-02-27 23:09:00,41.1,35.1,29.90,WNW,290,9.0,15.0,79,0.00,,,0.05,0,Wunderground v.1.15,2013-02-28 04:09:00,
2013-02-27 23:14:00,41.1,35.4,29.90,WNW,300,6.0,10.0,80,0.00,,,0.05,0,Wunderground v.1.15,2013-02-28 04:14:00,
2013-02-27 23:19:00,41.0,35.0,29.90,WNW,288,7.0,10.0,79,0.00,,,0.05,0,Wunderground v.1.15,2013-02-28 04:19:00,
2013-02-27 23:25:00,40.9,34.6,29.90,WNW,284,6.0,16.0,78,0.00,,,0.05,0,Wunderground v.1.15,2013-02-28 04:25:00,
2013-02-27 23:30:00,40.9,34.2,29.90,NW,313,14.0,14.0,77,0.00,,,0.05,0,Wunderground v.1.15,2013-02-28 04:30:00,
2013-02-27 23:35:00,40.8,33.5,29.90,NW,313,8.0,24.0,75,0.00,,,0.05,0,Wunderground v.1.15,2013-02-28 04:35:00,
2013-02-27 23:40:00,40.6,33.0,29.90,WNW,289,8.0,11.0,74,0.00,,,0.05,0,Wunderground v.1.15,2013-02-28 04:40:00,
2013-02-27 23:45:00,40.5,32.5,29.90,West,277,17.0,19.0,73,0.00,,,0.05,0,Wunderground v.1.15,2013-02-28 04:45:00,
2013-02-27 23:50:00,40.3,32.3,29.89,West,268,12.0,12.0,73,0.00,,,0.05,0,Wunderground v.1.15,2013-02-28 04:50:00,
2013-02-27 23:55:00,40.0,32.0,29.89,West,275,7.0,17.0,73,0.00,,,0.05,0,Wunderground v.1.15,2013-02-28 04:55:00,